Time;durP1;ratioP1;P1;durP2;ratioP2;P2;SDS_P1;SDS_P2;PMS_P1;PMS_P2;Temp;Humidity;BMP_temperature;BMP_pressure;BME280_temperature;BME280_humidity;BME280_pressure;Samples;Min_cycle;Max_cycle;Signal;HPM_P1;HPM_P2
2023/03/07 00:02:22;;;;;;;17.80;11.77;;;3.80;99.90;;;;;;5077041;28;20043;-73
2023/03/07 00:04:47;;;;;;;16.37;10.10;;;3.80;99.90;;;;;;5057471;28;20124;-71
2023/03/07 00:07:13;;;;;;;16.57;10.53;;;3.80;99.90;;;;;;5076067;28;20331;-71
2023/03/07 00:09:39;;;;;;;13.33;9.70;;;3.80;99.90;;;;;;5071693;28;20046;-71
2023/03/07 00:12:06;;;;;;;15.17;9.57;;;3.80;99.90;;;;;;5072989;28;20056;-71
2023/03/07 00:14:32;;;;;;;14.27;8.63;;;3.80;99.90;;;;;;5060268;28;20402;-71
2023/03/07 00:16:58;;;;;;;14.20;8.33;;;3.80;99.90;;;;;;5076666;28;20055;-71
2023/03/07 00:19:24;;;;;;;13.27;8.50;;;3.80;99.90;;;;;;5095446;28;20515;-71
2023/03/07 00:21:49;;;;;;;12.83;8.43;;;3.80;99.90;;;;;;5059568;28;20050;-71
2023/03/07 00:24:15;;;;;;;11.53;7.57;;;3.80;99.90;;;;;;5060867;28;20036;-71
2023/03/07 00:26:41;;;;;;;12.77;8.60;;;3.80;99.90;;;;;;5076418;28;20071;-72
2023/03/07 00:29:08;;;;;;;10.40;7.10;;;3.80;99.90;;;;;;5059095;28;20761;-71
2023/03/07 00:31:34;;;;;;;9.77;6.33;;;3.80;99.90;;;;;;5073259;28;20043;-71
2023/03/07 00:34:00;;;;;;;12.53;6.63;;;3.90;99.90;;;;;;5037445;28;20051;-71
2023/03/07 00:36:26;;;;;;;10.47;6.37;;;3.90;99.90;;;;;;5026242;28;20045;-70
2023/03/07 00:38:52;;;;;;;6.93;5.37;;;3.90;99.90;;;;;;5041813;28;20040;-71
2023/03/07 00:41:28;;;;;;;10.20;5.40;;;3.90;99.90;;;;;;5058742;28;20060;-72
2023/03/07 00:43:54;;;;;;;8.67;5.27;;;3.90;99.90;;;;;;5074612;28;20108;-71
2023/03/07 00:46:21;;;;;;;8.93;5.20;;;3.90;99.90;;;;;;5057333;28;20044;-71
2023/03/07 00:48:47;;;;;;;8.90;4.73;;;3.90;99.90;;;;;;5075516;28;20040;-71
2023/03/07 00:51:15;;;;;;;5.17;3.70;;;3.90;99.90;;;;;;5074599;28;20417;-71
2023/03/07 00:53:42;;;;;;;5.13;2.50;;;3.90;99.90;;;;;;5075770;28;20048;-71
2023/03/07 00:56:19;;;;;;;4.07;2.20;;;3.90;99.90;;;;;;5093093;28;20056;-71
2023/03/07 00:58:46;;;;;;;3.93;2.20;;;3.80;99.90;;;;;;5056816;28;20052;-71
2023/03/07 01:01:15;;;;;;;4.07;2.57;;;3.80;99.90;;;;;;5075119;28;20040;-71
2023/03/07 01:03:41;;;;;;;2.90;1.87;;;3.80;99.90;;;;;;5072988;28;20044;-71
2023/03/07 01:06:10;;;;;;;3.63;1.80;;;3.80;99.90;;;;;;5075463;28;20104;-71
2023/03/07 01:08:36;;;;;;;2.97;1.87;;;3.80;99.90;;;;;;5056178;28;20502;-71
2023/03/07 01:11:05;;;;;;;4.77;2.03;;;3.70;99.90;;;;;;5057927;28;20049;-71
2023/03/07 01:13:31;;;;;;;5.53;1.97;;;3.70;99.90;;;;;;5057622;28;20047;-70
2023/03/07 01:16:17;;;;;;;5.90;2.10;;;3.70;99.90;;;;;;5055901;28;20043;-71
2023/03/07 01:18:51;;;;;;;4.13;2.17;;;3.70;99.90;;;;;;5056260;28;20046;-71
2023/03/07 01:21:19;;;;;;;8.73;2.33;;;3.70;99.90;;;;;;5056828;28;20040;-71
2023/03/07 01:23:45;;;;;;;5.30;1.97;;;3.80;99.90;;;;;;5058714;28;20066;-71
2023/03/07 01:26:19;;;;;;;7.80;1.83;;;3.80;99.90;;;;;;5074242;28;20075;-71
2023/03/07 01:28:46;;;;;;;7.17;1.90;;;3.80;99.90;;;;;;5075070;28;20075;-72
2023/03/07 01:31:12;;;;;;;4.97;1.67;;;3.80;99.90;;;;;;5070339;28;20123;-72
2023/03/07 01:33:38;;;;;;;4.23;1.40;;;3.80;99.90;;;;;;5058246;28;20052;-71
2023/03/07 01:36:04;;;;;;;2.67;1.43;;;3.80;99.90;;;;;;5023300;28;20055;-72
2023/03/07 01:38:32;;;;;;;6.20;1.57;;;3.80;99.90;;;;;;5039949;28;20040;-71
2023/03/07 01:41:02;;;;;;;2.27;1.57;;;3.80;99.90;;;;;;5014064;28;1141314;-71
2023/03/07 01:43:31;;;;;;;3.90;1.53;;;3.80;99.90;;;;;;5057665;28;20100;-71
2023/03/07 01:46:16;;;;;;;3.73;1.53;;;3.70;99.90;;;;;;5088325;28;20036;-71
2023/03/07 01:49:04;;;;;;;2.97;1.70;;;3.70;99.90;;;;;;5091748;28;20415;-71
2023/03/07 01:51:31;;;;;;;5.60;1.73;;;3.70;99.90;;;;;;5073332;28;20095;-71
2023/03/07 01:53:59;;;;;;;3.57;1.53;;;3.60;99.90;;;;;;5053491;28;20040;-71
2023/03/07 01:56:25;;;;;;;4.63;1.97;;;3.60;99.90;;;;;;5040826;28;20048;-71
2023/03/07 01:58:52;;;;;;;5.00;2.10;;;3.60;99.90;;;;;;5041470;28;20045;-70
2023/03/07 02:01:18;;;;;;;4.47;2.00;;;3.60;99.90;;;;;;5057775;28;20071;-70
2023/03/07 02:04:03;;;;;;;5.67;2.07;;;3.60;99.90;;;;;;5074490;28;20086;-71
2023/03/07 02:06:34;;;;;;;5.10;2.10;;;3.60;99.90;;;;;;5090838;28;20040;-71
2023/03/07 02:09:01;;;;;;;6.90;1.90;;;3.50;99.90;;;;;;5055269;28;20614;-71
2023/03/07 02:11:27;;;;;;;6.27;2.53;;;3.50;99.90;;;;;;5074828;28;20123;-71
2023/03/07 02:13:53;;;;;;;6.13;2.10;;;3.50;99.90;;;;;;5040792;28;20054;-71
2023/03/07 02:16:19;;;;;;;4.50;2.23;;;3.50;99.90;;;;;;5058065;28;20040;-71
2023/03/07 02:18:48;;;;;;;4.97;2.00;;;3.50;99.90;;;;;;5052668;28;20052;-71
2023/03/07 02:21:45;;;;;;;6.07;2.20;;;3.50;99.90;;;;;;5074129;28;20063;-71
2023/03/07 02:24:42;;;;;;;6.17;2.30;;;3.50;99.90;;;;;;5086779;28;20052;-72
2023/03/07 02:27:08;;;;;;;11.90;2.40;;;3.60;99.90;;;;;;5068936;28;20432;-71
2023/03/07 02:29:34;;;;;;;5.07;2.00;;;3.60;99.90;;;;;;5074557;28;20043;-71
2023/03/07 02:31:59;;;;;;;6.77;2.10;;;3.60;99.90;;;;;;5089713;28;20413;-71
2023/03/07 02:34:27;;;;;;;7.07;2.50;;;3.60;99.90;;;;;;5055927;28;20039;-71
2023/03/07 02:37:31;;;;;;;6.20;2.17;;;3.60;99.90;;;;;;5092957;28;20482;-71
2023/03/07 02:40:04;;;;;;;9.00;2.37;;;3.60;99.90;;;;;;5089465;28;20507;-71
2023/03/07 02:42:32;;;;;;;6.30;2.07;;;3.60;99.90;;;;;;5071661;28;20044;-71
2023/03/07 02:45:00;;;;;;;7.27;1.90;;;3.60;99.90;;;;;;5055003;28;20067;-71
2023/03/07 02:47:27;;;;;;;6.43;2.10;;;3.60;99.90;;;;;;5090093;28;20070;-71
2023/03/07 02:49:52;;;;;;;8.47;2.00;;;3.60;99.90;;;;;;5093465;28;20075;-71
2023/03/07 02:52:18;;;;;;;8.00;2.27;;;3.50;99.90;;;;;;5091933;28;20051;-71
2023/03/07 02:54:44;;;;;;;8.87;2.00;;;3.50;99.90;;;;;;5074684;28;20066;-71
2023/03/07 02:57:10;;;;;;;10.27;2.33;;;3.50;99.90;;;;;;5054594;28;20048;-71
2023/03/07 02:59:36;;;;;;;7.40;1.93;;;3.50;99.90;;;;;;5072997;28;20066;-71
2023/03/07 03:02:02;;;;;;;4.83;1.77;;;3.40;99.90;;;;;;5039583;28;20048;-71
2023/03/07 03:04:28;;;;;;;10.67;2.43;;;3.40;99.90;;;;;;5072930;28;20048;-71
2023/03/07 03:06:54;;;;;;;7.33;2.00;;;3.30;99.90;;;;;;5074066;28;20095;-70
2023/03/07 03:09:20;;;;;;;7.93;2.10;;;3.30;99.90;;;;;;5073484;28;20044;-71
2023/03/07 03:11:46;;;;;;;7.20;1.90;;;3.30;99.90;;;;;;5074303;28;20074;-71
2023/03/07 03:14:11;;;;;;;7.67;2.20;;;3.30;99.90;;;;;;5073627;28;20632;-70
2023/03/07 03:16:38;;;;;;;5.83;1.73;;;3.20;99.90;;;;;;5070068;28;20059;-71
2023/03/07 03:19:04;;;;;;;9.77;2.27;;;3.20;99.90;;;;;;5089885;28;20531;-70
2023/03/07 03:21:30;;;;;;;8.47;2.37;;;3.20;99.90;;;;;;5091467;28;20167;-71
2023/03/07 03:23:56;;;;;;;5.60;1.63;;;3.20;99.90;;;;;;5054964;28;20471;-71
2023/03/07 03:26:22;;;;;;;8.17;1.80;;;3.20;99.90;;;;;;5056119;28;20131;-70
2023/03/07 03:28:48;;;;;;;11.73;2.20;;;3.10;99.90;;;;;;5073579;28;20372;-70
2023/03/07 03:31:14;;;;;;;7.40;1.87;;;3.10;99.90;;;;;;5092188;28;20055;-71
2023/03/07 03:33:40;;;;;;;7.57;1.83;;;3.10;99.90;;;;;;5039970;28;20044;-70
2023/03/07 03:36:10;;;;;;;8.27;1.90;;;3.10;99.90;;;;;;5073847;28;20071;-70
2023/03/07 03:38:35;;;;;;;7.80;2.00;;;3.10;99.90;;;;;;5056497;28;20039;-71
2023/03/07 03:41:11;;;;;;;7.73;2.13;;;3.10;99.90;;;;;;5072142;28;20048;-71
2023/03/07 03:43:36;;;;;;;8.20;2.23;;;3.10;99.90;;;;;;5076478;28;20040;-70
2023/03/07 03:46:02;;;;;;;8.57;1.97;;;3.00;99.90;;;;;;5042337;28;20079;-70
2023/03/07 03:48:29;;;;;;;8.63;1.97;;;3.00;99.90;;;;;;5060986;28;20040;-71
2023/03/07 03:51:06;;;;;;;12.47;1.83;;;3.00;99.90;;;;;;5061413;28;20103;-71
2023/03/07 03:53:34;;;;;;;9.07;2.13;;;3.00;99.90;;;;;;5075711;28;20052;-70
2023/03/07 03:56:06;;;;;;;10.40;1.97;;;3.00;99.90;;;;;;5076854;28;20101;-70
2023/03/07 03:58:33;;;;;;;4.77;1.63;;;3.00;99.90;;;;;;5060712;28;20048;-71
2023/03/07 04:01:04;;;;;;;9.83;2.10;;;2.90;99.90;;;;;;5076822;28;20158;-70
2023/03/07 04:03:39;;;;;;;8.90;2.05;;;2.90;99.90;;;;;;5060460;28;20094;-70
2023/03/07 04:06:07;;;;;;;9.10;1.77;;;2.90;99.90;;;;;;5056116;28;20457;-71
2023/03/07 04:08:34;;;;;;;14.07;2.37;;;2.90;99.90;;;;;;5075439;28;20272;-70
2023/03/07 04:11:00;;;;;;;6.63;1.53;;;2.90;99.90;;;;;;5077044;28;20142;-70
2023/03/07 04:13:26;;;;;;;8.27;1.87;;;2.90;99.90;;;;;;5059570;28;20048;-71
2023/03/07 04:15:53;;;;;;;7.57;2.03;;;2.90;99.90;;;;;;5095453;28;20028;-71
2023/03/07 04:18:20;;;;;;;9.97;1.70;;;2.90;99.90;;;;;;5076017;28;20135;-70
2023/03/07 04:20:47;;;;;;;10.73;1.90;;;2.90;99.90;;;;;;5076825;28;20036;-71
2023/03/07 04:23:12;;;;;;;9.33;1.80;;;2.90;99.90;;;;;;5060681;28;20052;-70
2023/03/07 04:25:38;;;;;;;6.93;2.13;;;2.80;99.90;;;;;;5060150;28;20048;-71
2023/03/07 04:28:04;;;;;;;8.80;2.10;;;2.80;99.90;;;;;;5060384;28;20497;-71
2023/03/07 04:30:29;;;;;;;9.90;1.73;;;2.80;99.90;;;;;;5076265;28;20071;-70
2023/03/07 04:32:55;;;;;;;7.13;1.73;;;2.80;99.90;;;;;;5043815;28;20046;-70
2023/03/07 04:35:21;;;;;;;8.50;1.90;;;2.70;99.90;;;;;;5040866;28;20043;-71
2023/03/07 04:37:47;;;;;;;5.33;1.60;;;2.70;99.90;;;;;;5042276;28;20050;-70
2023/03/07 04:40:13;;;;;;;6.67;1.83;;;2.70;99.90;;;;;;5076742;28;20052;-70
2023/03/07 04:42:38;;;;;;;6.10;2.07;;;2.60;99.90;;;;;;5058343;28;20052;-70
2023/03/07 04:45:04;;;;;;;7.13;1.83;;;2.60;99.90;;;;;;5077165;28;20069;-70
2023/03/07 04:47:30;;;;;;;8.63;2.30;;;2.60;99.90;;;;;;5058310;28;20044;-70
2023/03/07 04:49:56;;;;;;;7.60;1.67;;;2.60;99.90;;;;;;5057261;28;20035;-70
2023/03/07 04:52:21;;;;;;;8.43;1.67;;;2.60;99.90;;;;;;5026038;28;20048;-70
2023/03/07 04:54:47;;;;;;;10.30;1.83;;;2.60;99.90;;;;;;5056996;28;20478;-71
2023/03/07 04:57:13;;;;;;;8.80;2.40;;;2.60;99.90;;;;;;5075738;28;20044;-70
2023/03/07 04:59:38;;;;;;;4.87;1.80;;;2.60;99.90;;;;;;5093863;28;20052;-70
2023/03/07 05:02:10;;;;;;;6.50;1.70;;;2.60;99.90;;;;;;5024033;28;20068;-70
2023/03/07 05:04:36;;;;;;;8.40;2.00;;;2.60;99.90;;;;;;5058611;28;20040;-70
2023/03/07 05:07:02;;;;;;;9.60;2.00;;;2.60;99.90;;;;;;5093565;28;20028;-71
2023/03/07 05:09:28;;;;;;;4.87;1.53;;;2.60;99.90;;;;;;5092463;28;20032;-77
2023/03/07 05:11:54;;;;;;;10.80;2.07;;;2.60;99.90;;;;;;5055961;28;20514;-70
2023/03/07 05:14:20;;;;;;;9.20;1.50;;;2.60;99.90;;;;;;5056832;28;20071;-70
2023/03/07 05:16:46;;;;;;;9.17;2.07;;;2.60;99.90;;;;;;5075489;28;20040;-71
2023/03/07 05:19:12;;;;;;;5.17;1.70;;;2.70;99.90;;;;;;5054715;28;20122;-70
2023/03/07 05:21:39;;;;;;;10.00;1.63;;;2.60;99.90;;;;;;5074735;28;20075;-71
2023/03/07 05:24:08;;;;;;;7.40;1.93;;;2.70;99.90;;;;;;5094204;28;20044;-73
2023/03/07 05:26:34;;;;;;;7.97;1.70;;;2.70;99.90;;;;;;5072160;28;20605;-70
2023/03/07 05:29:00;;;;;;;9.20;1.83;;;2.70;99.90;;;;;;5051177;28;20060;-70
2023/03/07 05:31:26;;;;;;;5.97;1.83;;;2.70;99.90;;;;;;5042310;28;20051;-70
2023/03/07 05:33:52;;;;;;;9.27;1.63;;;2.70;99.90;;;;;;5072346;28;20044;-72
2023/03/07 05:36:18;;;;;;;9.40;1.77;;;2.70;99.90;;;;;;5075749;28;20185;-70
2023/03/07 05:38:44;;;;;;;8.57;1.97;;;2.70;99.90;;;;;;5058086;28;20041;-71
2023/03/07 05:41:09;;;;;;;8.20;1.90;;;2.70;99.90;;;;;;5058129;28;20044;-70
2023/03/07 05:43:35;;;;;;;6.90;1.73;;;2.70;99.90;;;;;;5093096;28;20058;-70
2023/03/07 05:46:01;;;;;;;6.43;1.43;;;2.70;99.90;;;;;;5059125;28;20043;-70
2023/03/07 05:48:26;;;;;;;8.73;2.10;;;2.70;99.90;;;;;;5075527;28;20047;-70
2023/03/07 05:50:52;;;;;;;6.33;1.73;;;2.70;99.90;;;;;;5058831;28;20067;-71
2023/03/07 05:53:18;;;;;;;9.13;1.77;;;2.70;99.90;;;;;;5039430;28;20079;-69
2023/03/07 05:55:44;;;;;;;10.53;2.13;;;2.70;99.90;;;;;;5089522;28;20062;-69
2023/03/07 05:58:10;;;;;;;8.67;1.83;;;2.80;99.90;;;;;;5042703;28;20046;-70
2023/03/07 06:00:35;;;;;;;9.17;1.83;;;2.80;99.90;;;;;;5039213;28;20572;-71
2023/03/07 06:03:04;;;;;;;9.07;2.00;;;2.80;99.90;;;;;;5058454;28;20556;-70
2023/03/07 06:05:30;;;;;;;8.33;1.83;;;2.80;99.90;;;;;;5037184;28;20052;-70
2023/03/07 06:07:56;;;;;;;7.50;1.70;;;2.80;99.90;;;;;;5059751;28;20092;-70
2023/03/07 06:10:22;;;;;;;5.07;1.57;;;2.80;99.90;;;;;;5055952;28;20040;-70
2023/03/07 06:12:54;;;;;;;6.23;1.90;;;2.90;99.90;;;;;;5032581;28;20055;-70
2023/03/07 06:15:20;;;;;;;9.40;1.88;;;2.90;99.90;;;;;;5037532;28;20067;-70
2023/03/07 06:17:46;;;;;;;9.07;1.80;;;2.90;99.90;;;;;;5070602;28;20048;-71
2023/03/07 06:20:13;;;;;;;13.93;2.87;;;2.90;99.90;;;;;;5074468;28;20055;-73
2023/03/07 06:22:38;;;;;;;9.80;2.20;;;2.90;99.90;;;;;;5041689;28;20078;-74
2023/03/07 06:25:06;;;;;;;7.97;2.03;;;2.90;99.90;;;;;;5020512;28;20534;-70
2023/03/07 06:27:34;;;;;;;7.80;1.70;;;2.90;99.90;;;;;;5058510;28;20361;-70
2023/03/07 06:30:00;;;;;;;6.13;1.83;;;2.90;99.90;;;;;;5073278;28;20150;-70
2023/03/07 06:32:25;;;;;;;14.37;2.03;;;3.00;99.90;;;;;;5074945;28;20067;-71
2023/03/07 06:34:51;;;;;;;7.63;1.83;;;3.00;99.90;;;;;;5040705;28;20065;-71
2023/03/07 06:37:17;;;;;;;9.07;1.90;;;3.00;99.90;;;;;;5075108;28;20395;-71
2023/03/07 06:39:42;;;;;;;12.03;2.20;;;3.00;99.90;;;;;;5038004;28;20504;-71
2023/03/07 06:42:08;;;;;;;9.97;2.23;;;3.10;99.90;;;;;;5021135;28;20044;-71
2023/03/07 06:44:34;;;;;;;10.67;1.87;;;3.10;99.90;;;;;;5057421;28;20056;-71
2023/03/07 06:47:00;;;;;;;5.53;1.87;;;3.10;99.90;;;;;;5074276;28;20028;-71
2023/03/07 06:49:25;;;;;;;7.37;2.00;;;3.20;99.90;;;;;;5058527;28;20040;-71
2023/03/07 06:51:51;;;;;;;7.77;1.80;;;3.10;99.90;;;;;;5074571;28;20036;-71
2023/03/07 06:54:17;;;;;;;6.53;1.87;;;3.10;99.90;;;;;;5075291;28;20074;-71
2023/03/07 06:56:43;;;;;;;7.67;1.67;;;3.10;99.90;;;;;;5074480;28;20551;-71
2023/03/07 06:59:09;;;;;;;6.63;1.80;;;3.00;99.90;;;;;;5058314;28;20052;-71
2023/03/07 07:01:36;;;;;;;9.03;1.93;;;3.00;99.90;;;;;;5042454;28;20480;-70
2023/03/07 07:04:02;;;;;;;7.63;1.80;;;3.00;99.90;;;;;;5074684;28;20044;-71
2023/03/07 07:06:29;;;;;;;6.93;1.47;;;3.00;99.90;;;;;;5075231;28;20063;-71
2023/03/07 07:08:56;;;;;;;8.23;1.57;;;2.90;99.90;;;;;;5073664;28;20040;-71
2023/03/07 07:11:22;;;;;;;10.73;1.57;;;2.90;99.90;;;;;;5064686;28;20044;-71
2023/03/07 07:13:49;;;;;;;5.63;1.40;;;2.90;99.90;;;;;;5057151;28;20101;-70
2023/03/07 07:16:16;;;;;;;5.70;1.33;;;2.90;99.90;;;;;;5057520;28;20070;-70
2023/03/07 07:18:41;;;;;;;6.97;1.50;;;2.90;99.90;;;;;;5059716;28;20048;-71
2023/03/07 07:21:07;;;;;;;9.17;1.77;;;2.90;99.90;;;;;;5061148;28;20050;-71
2023/03/07 07:23:33;;;;;;;4.43;1.33;;;2.90;99.90;;;;;;5080171;28;20039;-71
2023/03/07 07:25:59;;;;;;;6.87;2.10;;;2.80;99.90;;;;;;5064714;28;20608;-71
2023/03/07 07:28:24;;;;;;;6.23;1.50;;;2.80;99.90;;;;;;5061338;28;20040;-71
2023/03/07 07:30:50;;;;;;;6.33;1.93;;;2.90;99.90;;;;;;5096158;28;20068;-71
2023/03/07 07:33:16;;;;;;;6.67;1.57;;;2.90;99.90;;;;;;5096638;28;20079;-70
2023/03/07 07:35:43;;;;;;;7.20;1.87;;;2.90;99.90;;;;;;5075059;28;20024;-70
2023/03/07 07:38:08;;;;;;;6.77;1.70;;;2.90;99.90;;;;;;5061698;28;20040;-70
2023/03/07 07:40:34;;;;;;;10.27;1.93;;;3.00;99.90;;;;;;5073136;28;20545;-70
2023/03/07 07:43:00;;;;;;;4.53;1.40;;;3.00;99.90;;;;;;5074090;28;20044;-70
2023/03/07 07:45:25;;;;;;;10.40;1.70;;;3.00;99.90;;;;;;5073893;28;20495;-71
2023/03/07 07:47:51;;;;;;;4.87;1.33;;;3.00;99.90;;;;;;5074255;28;20149;-70
2023/03/07 07:50:19;;;;;;;7.63;1.57;;;3.10;99.90;;;;;;5073621;28;20041;-71
2023/03/07 07:52:45;;;;;;;5.87;1.63;;;3.10;99.90;;;;;;5065204;28;20041;-70
2023/03/07 07:55:14;;;;;;;7.43;2.43;;;3.10;99.90;;;;;;5074122;28;20048;-71
2023/03/07 07:57:41;;;;;;;6.77;1.70;;;3.10;99.90;;;;;;5074473;28;20052;-71
2023/03/07 08:00:09;;;;;;;7.07;1.70;;;3.10;99.90;;;;;;5070697;28;20143;-71
2023/03/07 08:02:35;;;;;;;4.30;1.20;;;3.10;99.90;;;;;;5074812;28;20323;-72
2023/03/07 08:05:02;;;;;;;4.07;1.40;;;3.10;99.90;;;;;;5057224;28;20052;-71
2023/03/07 08:07:27;;;;;;;8.13;1.53;;;3.20;99.90;;;;;;5057914;28;20432;-71
2023/03/07 08:09:53;;;;;;;6.13;1.57;;;3.20;99.90;;;;;;5018628;28;20048;-70
2023/03/07 08:12:19;;;;;;;5.07;1.50;;;3.20;99.90;;;;;;5047608;28;20051;-71
2023/03/07 08:14:44;;;;;;;4.83;1.30;;;3.20;99.90;;;;;;5058163;28;20068;-71
2023/03/07 08:17:10;;;;;;;4.30;1.27;;;3.20;99.90;;;;;;5056233;28;20518;-70
2023/03/07 08:19:36;;;;;;;6.13;1.67;;;3.20;99.90;;;;;;5073374;28;20037;-70
2023/03/07 08:22:02;;;;;;;7.83;1.70;;;3.20;99.90;;;;;;5073364;28;20032;-70
2023/03/07 08:24:27;;;;;;;5.60;1.50;;;3.20;99.90;;;;;;5056987;28;20082;-71
2023/03/07 08:26:53;;;;;;;5.37;1.33;;;3.20;99.90;;;;;;5037310;28;20045;-71
2023/03/07 08:29:19;;;;;;;4.83;1.40;;;3.20;99.90;;;;;;5055738;28;20505;-71
2023/03/07 08:31:45;;;;;;;5.13;1.37;;;3.20;99.90;;;;;;5057690;28;20139;-71
2023/03/07 08:34:11;;;;;;;4.20;1.10;;;3.20;99.90;;;;;;5074022;28;20047;-71
2023/03/07 08:36:38;;;;;;;4.00;1.20;;;3.20;99.90;;;;;;5055161;28;20102;-71
2023/03/07 08:39:04;;;;;;;6.80;1.43;;;3.20;99.90;;;;;;5055932;28;20403;-71
2023/03/07 08:41:30;;;;;;;3.00;1.10;;;3.20;99.90;;;;;;5056365;28;20052;-71
2023/03/07 08:43:56;;;;;;;4.80;1.27;;;3.20;99.90;;;;;;5050643;28;20044;-70
2023/03/07 08:46:22;;;;;;;3.10;0.80;;;3.20;99.90;;;;;;5072882;28;20105;-71
2023/03/07 08:48:48;;;;;;;4.57;1.17;;;3.30;99.90;;;;;;5057333;28;20068;-71
2023/03/07 08:51:16;;;;;;;4.80;1.37;;;3.30;99.90;;;;;;5039039;28;20183;-70
2023/03/07 08:53:43;;;;;;;7.43;1.80;;;3.40;99.90;;;;;;5040519;28;20087;-70
2023/03/07 08:56:11;;;;;;;3.07;1.30;;;3.50;99.90;;;;;;5071918;28;20044;-71
2023/03/07 08:58:37;;;;;;;2.40;1.00;;;3.50;99.90;;;;;;5073524;28;20086;-71
2023/03/07 09:01:04;;;;;;;3.33;1.10;;;3.50;99.90;;;;;;5038128;28;20036;-71
2023/03/07 09:03:29;;;;;;;5.03;1.07;;;3.60;99.90;;;;;;5055440;28;20044;-71
2023/03/07 09:05:55;;;;;;;4.73;1.20;;;3.70;99.90;;;;;;5056448;28;20118;-71
2023/03/07 09:08:22;;;;;;;4.10;0.90;;;3.80;99.90;;;;;;5071556;28;20045;-71
2023/03/07 09:10:47;;;;;;;7.47;1.30;;;3.90;99.90;;;;;;5073474;28;20269;-70
2023/03/07 09:13:13;;;;;;;5.50;1.23;;;3.90;99.90;;;;;;5080866;28;20060;-70
2023/03/07 09:15:39;;;;;;;7.30;1.30;;;3.90;99.90;;;;;;5072992;28;20049;-70
2023/03/07 09:18:06;;;;;;;4.57;1.43;;;4.00;99.90;;;;;;5072795;28;20060;-71
2023/03/07 09:20:32;;;;;;;2.37;1.20;;;4.10;99.90;;;;;;5055915;28;20040;-70
2023/03/07 09:22:57;;;;;;;4.70;1.10;;;4.10;99.90;;;;;;5056473;28;20043;-70
2023/03/07 09:25:23;;;;;;;4.37;1.10;;;4.10;99.90;;;;;;5019123;28;20045;-71
2023/03/07 09:27:49;;;;;;;6.23;1.67;;;4.10;99.90;;;;;;5015774;28;20040;-71
2023/03/07 09:30:15;;;;;;;6.33;1.40;;;4.10;99.90;;;;;;5055650;28;20056;-71
2023/03/07 09:32:41;;;;;;;5.30;1.43;;;4.10;99.90;;;;;;5055064;28;20044;-70
2023/03/07 09:35:09;;;;;;;3.03;1.00;;;4.00;99.90;;;;;;5038647;28;20087;-72
2023/03/07 09:37:35;;;;;;;4.37;1.20;;;4.00;99.90;;;;;;5056273;28;20051;-70
2023/03/07 09:40:04;;;;;;;6.43;1.63;;;3.90;99.90;;;;;;5072301;28;20459;-71
2023/03/07 09:42:58;;;;;;;4.67;1.40;;;3.80;99.90;;;;;;5071581;28;20129;-70
2023/03/07 09:45:38;;;;;;;6.00;1.10;;;3.70;99.90;;;;;;5074276;28;20048;-71
2023/03/07 09:48:04;;;;;;;3.33;1.30;;;3.60;99.90;;;;;;5070352;28;20060;-71
2023/03/07 09:50:54;;;;;;;4.03;1.10;;;3.50;99.90;;;;;;5073678;28;20536;-71
2023/03/07 09:53:53;;;;;;;4.07;1.17;;;3.20;99.90;;;;;;5070900;28;20122;-70
2023/03/07 09:56:36;;;;;;;5.07;1.33;;;2.70;99.90;;;;;;5067329;28;20052;-71
2023/03/07 09:59:41;;;;;;;6.87;1.73;;;2.50;99.90;;;;;;5061915;28;20048;-70
2023/03/07 10:02:33;;;;;;;5.00;1.20;;;2.40;99.90;;;;;;5060306;28;20064;-71
2023/03/07 10:05:18;;;;;;;7.25;1.20;;;2.20;99.90;;;;;;5064427;28;20075;-71
2023/03/07 10:07:43;;;;;;;6.33;1.30;;;2.20;99.90;;;;;;5071934;28;20056;-70
2023/03/07 10:10:38;;;;;;;5.80;1.70;;;2.30;99.90;;;;;;5072424;28;20122;-70
2023/03/07 10:13:27;;;;;;;7.03;1.90;;;2.30;99.90;;;;;;5071476;28;20083;-71
2023/03/07 10:15:59;;;;;;;5.63;1.40;;;2.40;99.90;;;;;;5066531;28;20067;-70
2023/03/07 10:18:45;;;;;;;3.97;1.30;;;2.40;99.90;;;;;;5071696;28;20045;-71
2023/03/07 10:21:24;;;;;;;3.73;1.43;;;2.50;99.90;;;;;;5072879;28;20037;-71
2023/03/07 10:24:10;;;;;;;9.17;1.50;;;2.60;99.90;;;;;;5054968;28;20052;-70
2023/03/07 10:26:53;;;;;;;4.63;1.50;;;2.70;99.90;;;;;;5071682;28;20059;-70
2023/03/07 10:29:23;;;;;;;4.50;1.37;;;2.90;99.90;;;;;;5040512;28;20048;-70
2023/03/07 10:32:05;;;;;;;3.93;1.23;;;3.00;99.90;;;;;;5047529;28;20049;-71
2023/03/07 10:34:31;;;;;;;5.97;1.65;;;3.10;99.90;;;;;;5044775;28;20074;-71
2023/03/07 10:37:18;;;;;;;8.83;1.37;;;3.20;99.90;;;;;;5038301;28;20033;-70
2023/03/07 10:39:53;;;;;;;7.63;1.30;;;3.40;99.90;;;;;;5065374;28;20083;-71
2023/03/07 10:42:23;;;;;;;8.30;1.67;;;3.50;99.90;;;;;;5074468;28;20056;-71
2023/03/07 10:44:53;;;;;;;4.80;1.20;;;3.60;99.90;;;;;;5075169;28;20048;-71
2023/03/07 10:47:24;;;;;;;4.40;1.30;;;3.70;99.90;;;;;;5092533;28;20054;-71
2023/03/07 10:49:54;;;;;;;6.32;1.63;;;3.80;99.90;;;;;;5074861;28;20044;-71
2023/03/07 10:52:43;;;;;;;6.77;1.33;;;3.80;99.90;;;;;;5057144;28;20063;-71
2023/03/07 10:55:34;;;;;;;5.90;1.40;;;3.90;99.90;;;;;;5051011;28;20461;-70
2023/03/07 10:58:14;;;;;;;7.13;1.90;;;4.00;99.90;;;;;;5057793;28;20048;-70
2023/03/07 11:00:40;;;;;;;9.13;1.53;;;4.10;99.90;;;;;;5074354;28;20157;-70
2023/03/07 11:03:24;;;;;;;7.20;1.50;;;4.10;99.90;;;;;;5074860;28;20044;-70
2023/03/07 11:05:50;;;;;;;5.97;1.53;;;4.20;99.90;;;;;;5074719;28;20048;-70
2023/03/07 11:08:30;;;;;;;6.57;1.60;;;4.40;99.90;;;;;;5057928;28;20054;-71
2023/03/07 11:10:56;;;;;;;6.37;1.50;;;4.50;99.90;;;;;;5075722;28;20108;-70
2023/03/07 11:13:23;;;;;;;9.30;1.70;;;4.70;99.90;;;;;;5078979;28;20071;-70
2023/03/07 11:15:49;;;;;;;6.37;1.83;;;4.80;99.90;;;;;;5075603;28;20438;-71
2023/03/07 11:18:25;;;;;;;4.53;1.47;;;4.90;99.90;;;;;;5092813;28;20055;-71
2023/03/07 11:20:50;;;;;;;6.20;1.70;;;5.00;99.90;;;;;;5092613;28;20047;-71
2023/03/07 11:23:25;;;;;;;4.73;1.37;;;5.00;99.90;;;;;;5075080;28;20256;-71
2023/03/07 11:25:55;;;;;;;7.10;1.53;;;5.10;99.90;;;;;;5092074;28;20040;-70
2023/03/07 11:28:25;;;;;;;5.03;1.40;;;5.30;99.90;;;;;;5089577;28;20043;-71
2023/03/07 11:30:55;;;;;;;8.07;1.80;;;5.40;99.90;;;;;;5057733;28;20036;-70
2023/03/07 11:33:36;;;;;;;5.67;2.00;;;5.40;99.90;;;;;;5057754;28;20044;-73
2023/03/07 11:36:12;;;;;;;5.67;1.57;;;5.50;99.90;;;;;;5080954;28;20123;-73
2023/03/07 11:38:54;;;;;;;7.23;1.73;;;5.60;99.90;;;;;;5092080;28;20056;-73
2023/03/07 11:41:27;;;;;;;7.03;1.58;;;5.80;99.90;;;;;;5092555;28;20121;-70
2023/03/07 11:43:59;;;;;;;8.17;2.27;;;5.80;99.90;;;;;;5073379;28;20048;-70
2023/03/07 11:46:50;;;;;;;8.05;1.77;;;5.80;99.90;;;;;;5092265;28;20052;-70
2023/03/07 11:49:40;;;;;;;8.87;1.60;;;5.80;99.90;;;;;;5074472;28;20044;-70
2023/03/07 11:52:33;;;;;;;7.43;1.57;;;5.80;99.90;;;;;;5084629;28;20780;-70
2023/03/07 11:55:25;;;;;;;4.23;1.43;;;5.90;99.90;;;;;;5068999;28;20040;-70
2023/03/07 11:58:20;;;;;;;8.53;1.80;;;5.80;99.90;;;;;;5053117;28;20082;-70
2023/03/07 12:00:58;;;;;;;7.70;1.90;;;5.90;99.90;;;;;;5091922;28;20062;-71
2023/03/07 12:03:24;;;;;;;7.73;1.50;;;5.80;99.90;;;;;;5071767;28;20567;-70
2023/03/07 12:05:59;;;;;;;6.40;1.50;;;5.80;99.90;;;;;;5077674;28;20430;-70
2023/03/07 12:08:39;;;;;;;6.10;1.63;;;5.90;99.90;;;;;;5076381;28;20205;-71
2023/03/07 12:11:29;;;;;;;6.93;1.40;;;5.90;99.90;;;;;;5077718;28;20063;-70
2023/03/07 12:14:10;;;;;;;5.50;1.30;;;5.90;99.90;;;;;;5092688;28;20040;-71
2023/03/07 12:16:47;;;;;;;6.43;1.40;;;5.80;99.90;;;;;;5095463;28;20048;-71
2023/03/07 12:19:32;;;;;;;4.00;1.20;;;5.70;99.90;;;;;;5095553;28;20054;-71
2023/03/07 12:22:27;;;;;;;5.33;1.13;;;5.70;99.90;;;;;;5076545;28;20620;-71
2023/03/07 12:25:02;;;;;;;4.40;1.00;;;5.60;99.90;;;;;;5084488;28;20559;-70
2023/03/07 12:27:54;;;;;;;3.70;0.97;;;5.50;99.90;;;;;;5095571;28;20100;-70
2023/03/07 12:30:29;;;;;;;3.35;0.90;;;5.40;99.90;;;;;;5075026;28;20056;-71
2023/03/07 12:32:56;;;;;;;7.03;1.40;;;5.50;99.90;;;;;;5077382;28;20075;-69
2023/03/07 12:35:50;;;;;;;4.90;1.30;;;5.60;99.90;;;;;;5059849;28;20471;-71
2023/03/07 12:38:30;;;;;;;4.10;1.20;;;5.50;99.90;;;;;;5072839;28;20051;-70
2023/03/07 12:41:08;;;;;;;4.37;1.10;;;5.50;99.90;;;;;;5077089;28;20742;-70
2023/03/07 12:43:44;;;;;;;5.73;1.70;;;5.40;99.90;;;;;;5075703;28;20040;-70
2023/03/07 12:46:22;;;;;;;4.37;1.60;;;5.30;99.90;;;;;;5076541;28;20048;-70
2023/03/07 12:48:52;;;;;;;6.23;1.30;;;5.20;99.90;;;;;;5060470;28;20054;-70
2023/03/07 12:51:36;;;;;;;3.97;1.23;;;5.10;99.90;;;;;;5075959;28;20052;-71
2023/03/07 12:54:20;;;;;;;5.00;1.33;;;5.00;99.90;;;;;;5095108;28;20084;-70
2023/03/07 12:57:19;;;;;;;4.80;1.17;;;5.00;99.90;;;;;;5076614;28;20128;-70
2023/03/07 12:59:45;;;;;;;8.23;1.33;;;5.00;99.90;;;;;;5075490;28;20040;-75
2023/03/07 13:02:14;;;;;;;5.77;1.90;;;5.10;99.90;;;;;;5076084;28;20032;-70
2023/03/07 13:04:43;;;;;;;8.27;1.70;;;5.00;99.90;;;;;;5069602;28;20039;-70
2023/03/07 13:07:15;;;;;;;8.57;1.60;;;5.10;99.90;;;;;;5094316;28;20098;-70
2023/03/07 13:09:44;;;;;;;6.70;1.90;;;5.10;99.90;;;;;;5073569;28;20111;-70
2023/03/07 13:12:18;;;;;;;6.40;1.60;;;5.20;99.90;;;;;;5075079;28;20090;-69